sensor_id;sensor_type;location;lat;lon;timestamp;temperature;humidity
43087;DHT22;28708;52.224;6.924;2023-05-07T00:00:49;14.70;99.90
43087;DHT22;28708;52.224;6.924;2023-05-07T00:03:15;14.70;99.90
43087;DHT22;28708;52.224;6.924;2023-05-07T00:05:40;14.70;99.90
43087;DHT22;28708;52.224;6.924;2023-05-07T00:08:07;14.70;99.90
43087;DHT22;28708;52.224;6.924;2023-05-07T00:10:32;14.60;99.90
43087;DHT22;28708;52.224;6.924;2023-05-07T00:12:58;14.60;99.90
43087;DHT22;28708;52.224;6.924;2023-05-07T00:15:24;14.60;99.90
43087;DHT22;28708;52.224;6.924;2023-05-07T00:17:53;14.60;99.90
43087;DHT22;28708;52.224;6.924;2023-05-07T00:20:19;14.60;99.90
43087;DHT22;28708;52.224;6.924;2023-05-07T00:22:44;14.60;99.90
43087;DHT22;28708;52.224;6.924;2023-05-07T00:25:10;14.60;99.90
43087;DHT22;28708;52.224;6.924;2023-05-07T00:27:36;14.60;99.90
43087;DHT22;28708;52.224;6.924;2023-05-07T00:30:02;14.60;99.90
43087;DHT22;28708;52.224;6.924;2023-05-07T00:32:27;14.60;99.90
43087;DHT22;28708;52.224;6.924;2023-05-07T00:34:53;14.50;99.90
43087;DHT22;28708;52.224;6.924;2023-05-07T00:37:18;14.60;99.90
43087;DHT22;28708;52.224;6.924;2023-05-07T00:39:44;14.60;99.90
43087;DHT22;28708;52.224;6.924;2023-05-07T00:42:10;14.60;99.90
43087;DHT22;28708;52.224;6.924;2023-05-07T00:44:35;14.60;99.90
43087;DHT22;28708;52.224;6.924;2023-05-07T00:47:05;14.50;99.90
43087;DHT22;28708;52.224;6.924;2023-05-07T00:49:37;14.50;99.90
43087;DHT22;28708;52.224;6.924;2023-05-07T00:52:05;14.50;99.90
43087;DHT22;28708;52.224;6.924;2023-05-07T00:54:36;14.50;99.90
43087;DHT22;28708;52.224;6.924;2023-05-07T00:57:03;14.50;99.90
43087;DHT22;28708;52.224;6.924;2023-05-07T00:59:30;14.50;99.90
43087;DHT22;28708;52.224;6.924;2023-05-07T01:01:57;14.50;99.90
43087;DHT22;28708;52.224;6.924;2023-05-07T01:04:22;14.40;99.90
43087;DHT22;28708;52.224;6.924;2023-05-07T01:06:49;14.40;99.90
43087;DHT22;28708;52.224;6.924;2023-05-07T01:09:16;14.40;99.90
43087;DHT22;28708;52.224;6.924;2023-05-07T01:11:42;14.40;99.90
43087;DHT22;28708;52.224;6.924;2023-05-07T01:14:09;14.40;99.90
43087;DHT22;28708;52.224;6.924;2023-05-07T01:16:36;14.40;99.90
43087;DHT22;28708;52.224;6.924;2023-05-07T01:19:02;14.40;99.90
43087;DHT22;28708;52.224;6.924;2023-05-07T01:21:33;14.40;99.90
43087;DHT22;28708;52.224;6.924;2023-05-07T01:24:01;14.30;99.90
43087;DHT22;28708;52.224;6.924;2023-05-07T01:26:28;14.20;99.90
43087;DHT22;28708;52.224;6.924;2023-05-07T01:28:54;14.30;99.90
43087;DHT22;28708;52.224;6.924;2023-05-07T01:31:20;14.30;99.90
43087;DHT22;28708;52.224;6.924;2023-05-07T01:33:46;14.20;99.90
43087;DHT22;28708;52.224;6.924;2023-05-07T01:36:14;14.20;99.90
43087;DHT22;28708;52.224;6.924;2023-05-07T01:38:41;14.20;99.90
43087;DHT22;28708;52.224;6.924;2023-05-07T01:41:07;14.20;99.90
43087;DHT22;28708;52.224;6.924;2023-05-07T01:43:33;14.10;99.90
43087;DHT22;28708;52.224;6.924;2023-05-07T01:45:59;14.20;99.90
43087;DHT22;28708;52.224;6.924;2023-05-07T01:48:26;14.10;99.90
43087;DHT22;28708;52.224;6.924;2023-05-07T01:50:52;14.10;99.90
43087;DHT22;28708;52.224;6.924;2023-05-07T01:53:18;14.10;99.90
43087;DHT22;28708;52.224;6.924;2023-05-07T01:55:44;13.90;99.90
43087;DHT22;28708;52.224;6.924;2023-05-07T01:58:10;13.90;99.90
43087;DHT22;28708;52.224;6.924;2023-05-07T02:00:36;13.90;99.90
43087;DHT22;28708;52.224;6.924;2023-05-07T02:03:02;13.80;99.90
43087;DHT22;28708;52.224;6.924;2023-05-07T02:05:36;13.80;99.90
43087;DHT22;28708;52.224;6.924;2023-05-07T02:08:21;13.80;99.90
43087;DHT22;28708;52.224;6.924;2023-05-07T02:10:47;13.90;99.90
43087;DHT22;28708;52.224;6.924;2023-05-07T02:13:12;13.80;99.90
43087;DHT22;28708;52.224;6.924;2023-05-07T02:15:38;13.80;99.90
43087;DHT22;28708;52.224;6.924;2023-05-07T02:18:05;13.70;99.90
43087;DHT22;28708;52.224;6.924;2023-05-07T02:20:32;13.60;99.90
43087;DHT22;28708;52.224;6.924;2023-05-07T02:22:58;13.60;99.90
43087;DHT22;28708;52.224;6.924;2023-05-07T02:25:26;13.60;99.90
43087;DHT22;28708;52.224;6.924;2023-05-07T02:27:52;13.60;99.90
43087;DHT22;28708;52.224;6.924;2023-05-07T02:30:20;13.60;99.90
43087;DHT22;28708;52.224;6.924;2023-05-07T02:32:48;13.60;99.90
43087;DHT22;28708;52.224;6.924;2023-05-07T02:35:13;13.60;99.90
43087;DHT22;28708;52.224;6.924;2023-05-07T02:37:39;13.60;99.90
43087;DHT22;28708;52.224;6.924;2023-05-07T02:40:05;13.50;99.90
43087;DHT22;28708;52.224;6.924;2023-05-07T02:42:31;13.60;99.90
43087;DHT22;28708;52.224;6.924;2023-05-07T02:44:57;13.50;99.90
43087;DHT22;28708;52.224;6.924;2023-05-07T02:47:24;13.40;99.90
43087;DHT22;28708;52.224;6.924;2023-05-07T02:49:52;13.50;99.90
43087;DHT22;28708;52.224;6.924;2023-05-07T02:52:18;13.50;99.90
43087;DHT22;28708;52.224;6.924;2023-05-07T02:54:44;13.40;99.90
43087;DHT22;28708;52.224;6.924;2023-05-07T02:57:10;13.40;99.90
43087;DHT22;28708;52.224;6.924;2023-05-07T02:59:35;13.30;99.90
43087;DHT22;28708;52.224;6.924;2023-05-07T03:02:02;13.40;99.90
43087;DHT22;28708;52.224;6.924;2023-05-07T03:04:28;13.30;99.90
43087;DHT22;28708;52.224;6.924;2023-05-07T03:06:53;13.20;99.90
43087;DHT22;28708;52.224;6.924;2023-05-07T03:09:19;13.20;99.90
43087;DHT22;28708;52.224;6.924;2023-05-07T03:11:45;13.20;99.90
43087;DHT22;28708;52.224;6.924;2023-05-07T03:14:10;13.10;99.90
43087;DHT22;28708;52.224;6.924;2023-05-07T03:16:39;13.10;99.90
43087;DHT22;28708;52.224;6.924;2023-05-07T03:19:05;13.20;99.90
43087;DHT22;28708;52.224;6.924;2023-05-07T03:21:31;13.10;99.90
43087;DHT22;28708;52.224;6.924;2023-05-07T03:23:59;13.10;99.90
43087;DHT22;28708;52.224;6.924;2023-05-07T03:26:25;13.00;99.90
43087;DHT22;28708;52.224;6.924;2023-05-07T03:28:51;13.00;99.90
43087;DHT22;28708;52.224;6.924;2023-05-07T03:31:17;13.00;99.90
43087;DHT22;28708;52.224;6.924;2023-05-07T03:33:51;13.00;99.90
43087;DHT22;28708;52.224;6.924;2023-05-07T03:36:17;12.90;99.90
43087;DHT22;28708;52.224;6.924;2023-05-07T03:38:43;12.90;99.90
43087;DHT22;28708;52.224;6.924;2023-05-07T03:41:09;12.90;99.90
43087;DHT22;28708;52.224;6.924;2023-05-07T03:43:35;12.90;99.90
43087;DHT22;28708;52.224;6.924;2023-05-07T03:46:05;12.80;99.90
43087;DHT22;28708;52.224;6.924;2023-05-07T03:48:31;12.80;99.90
43087;DHT22;28708;52.224;6.924;2023-05-07T03:50:58;12.80;99.90
43087;DHT22;28708;52.224;6.924;2023-05-07T03:53:27;12.70;99.90
43087;DHT22;28708;52.224;6.924;2023-05-07T03:55:53;12.70;99.90
43087;DHT22;28708;52.224;6.924;2023-05-07T03:58:19;12.70;99.90
43087;DHT22;28708;52.224;6.924;2023-05-07T04:00:46;12.70;99.90
43087;DHT22;28708;52.224;6.924;2023-05-07T04:03:19;12.70;99.90
43087;DHT22;28708;52.224;6.924;2023-05-07T04:05:45;12.70;99.90
43087;DHT22;28708;52.224;6.924;2023-05-07T04:08:10;12.70;99.90
43087;DHT22;28708;52.224;6.924;2023-05-07T04:10:41;12.60;99.90
43087;DHT22;28708;52.224;6.924;2023-05-07T04:13:09;12.60;99.90
43087;DHT22;28708;52.224;6.924;2023-05-07T04:15:36;12.60;99.90
43087;DHT22;28708;52.224;6.924;2023-05-07T04:18:04;12.60;99.90
43087;DHT22;28708;52.224;6.924;2023-05-07T04:20:34;12.60;99.90
43087;DHT22;28708;52.224;6.924;2023-05-07T04:23:32;12.60;99.90
43087;DHT22;28708;52.224;6.924;2023-05-07T04:26:01;12.60;99.90
